Budapest/Lorinc, Hungary
Current Conditions -  °F | °C
As of 11:00 AM on Monday 22 Dec 2014 (Local Time) from LHBP Reporting Station
Clear Clear  
Wind Chill: 36°   Ceiling: Unl
Heat Index: 41°   Visibility: 6mi
Dew Point: 28°   Wind: 8mph
Humidity: 61%   Direction: 250°WSW
Pressure: 30.18"   Gusts: NA
Location:  47.43°N, 19.18°E
Report Text: LHBP 220900Z 25007KT 220V280 CAVOK 05/M02 Q1022 NOSIG
Loading
Personal Weather Stations






























Interactive Weather Map New forecast layout! Learn more

10-Day Weather Forecast

Advertisements
Track Severe Weather on mobile